sensor_id;sensor_type;location;lat;lon;timestamp;temperature;humidity
59660;DHT22;45534;52.690;6.268;2022-09-30T00:00:20;10.10;99.90
59660;DHT22;45534;52.690;6.268;2022-09-30T00:02:45;10.00;99.90
59660;DHT22;45534;52.690;6.268;2022-09-30T00:05:11;10.00;99.90
59660;DHT22;45534;52.690;6.268;2022-09-30T00:07:37;10.00;99.90
59660;DHT22;45534;52.690;6.268;2022-09-30T00:10:03;9.90;99.90
59660;DHT22;45534;52.690;6.268;2022-09-30T00:12:29;9.90;99.90
59660;DHT22;45534;52.690;6.268;2022-09-30T00:14:55;9.80;99.90
59660;DHT22;45534;52.690;6.268;2022-09-30T00:17:21;9.80;99.90
59660;DHT22;45534;52.690;6.268;2022-09-30T00:19:46;9.90;99.90
59660;DHT22;45534;52.690;6.268;2022-09-30T00:22:13;9.80;99.90
59660;DHT22;45534;52.690;6.268;2022-09-30T00:24:38;9.80;99.90
59660;DHT22;45534;52.690;6.268;2022-09-30T00:27:04;9.80;99.90
59660;DHT22;45534;52.690;6.268;2022-09-30T00:29:30;9.70;99.90
59660;DHT22;45534;52.690;6.268;2022-09-30T00:31:55;9.70;99.90
59660;DHT22;45534;52.690;6.268;2022-09-30T00:34:21;9.60;99.90
59660;DHT22;45534;52.690;6.268;2022-09-30T00:36:50;9.60;99.90
59660;DHT22;45534;52.690;6.268;2022-09-30T00:39:25;9.50;99.90
59660;DHT22;45534;52.690;6.268;2022-09-30T00:41:54;9.40;99.90
59660;DHT22;45534;52.690;6.268;2022-09-30T00:45:06;9.40;99.90
59660;DHT22;45534;52.690;6.268;2022-09-30T00:47:39;9.40;99.90
59660;DHT22;45534;52.690;6.268;2022-09-30T00:50:35;9.30;99.90
59660;DHT22;45534;52.690;6.268;2022-09-30T00:53:18;9.20;99.90
59660;DHT22;45534;52.690;6.268;2022-09-30T00:55:52;9.20;99.90
59660;DHT22;45534;52.690;6.268;2022-09-30T00:58:28;9.20;99.90
59660;DHT22;45534;52.690;6.268;2022-09-30T01:00:56;9.10;99.90
59660;DHT22;45534;52.690;6.268;2022-09-30T01:03:23;9.10;99.90
59660;DHT22;45534;52.690;6.268;2022-09-30T01:05:50;9.10;99.90
59660;DHT22;45534;52.690;6.268;2022-09-30T01:08:17;9.00;99.90
59660;DHT22;45534;52.690;6.268;2022-09-30T01:10:45;9.00;99.90
59660;DHT22;45534;52.690;6.268;2022-09-30T01:13:12;8.90;99.90
59660;DHT22;45534;52.690;6.268;2022-09-30T01:18:28;8.70;99.90
59660;DHT22;45534;52.690;6.268;2022-09-30T01:21:18;8.70;99.90
59660;DHT22;45534;52.690;6.268;2022-09-30T01:32:38;8.50;99.90
59660;DHT22;45534;52.690;6.268;2022-09-30T01:35:06;8.50;99.90
59660;DHT22;45534;52.690;6.268;2022-09-30T01:40:23;8.40;99.90
59660;DHT22;45534;52.690;6.268;2022-09-30T01:42:52;8.30;99.90
59660;DHT22;45534;52.690;6.268;2022-09-30T01:48:40;8.30;99.90
59660;DHT22;45534;52.690;6.268;2022-09-30T01:53:53;8.20;99.90
59660;DHT22;45534;52.690;6.268;2022-09-30T01:59:09;8.10;99.90
59660;DHT22;45534;52.690;6.268;2022-09-30T02:01:41;8.10;99.90
59660;DHT22;45534;52.690;6.268;2022-09-30T02:04:18;8.20;99.90
59660;DHT22;45534;52.690;6.268;2022-09-30T02:06:49;8.10;99.90
59660;DHT22;45534;52.690;6.268;2022-09-30T02:09:37;8.20;99.90
59660;DHT22;45534;52.690;6.268;2022-09-30T02:12:06;8.10;99.90
59660;DHT22;45534;52.690;6.268;2022-09-30T02:14:43;8.20;99.90
59660;DHT22;45534;52.690;6.268;2022-09-30T02:17:15;8.10;99.90
59660;DHT22;45534;52.690;6.268;2022-09-30T02:19:57;8.10;99.90
59660;DHT22;45534;52.690;6.268;2022-09-30T02:22:32;8.00;99.90
59660;DHT22;45534;52.690;6.268;2022-09-30T02:25:06;8.00;99.90
59660;DHT22;45534;52.690;6.268;2022-09-30T02:27:38;8.00;99.90
59660;DHT22;45534;52.690;6.268;2022-09-30T02:30:08;7.90;99.90
59660;DHT22;45534;52.690;6.268;2022-09-30T02:32:42;8.00;99.90
59660;DHT22;45534;52.690;6.268;2022-09-30T02:35:13;8.00;99.90
59660;DHT22;45534;52.690;6.268;2022-09-30T02:37:53;8.00;99.90
59660;DHT22;45534;52.690;6.268;2022-09-30T02:42:51;8.00;99.90
59660;DHT22;45534;52.690;6.268;2022-09-30T02:45:20;7.90;99.90
59660;DHT22;45534;52.690;6.268;2022-09-30T02:48:04;7.90;99.90
59660;DHT22;45534;52.690;6.268;2022-09-30T02:58:21;7.70;99.90
59660;DHT22;45534;52.690;6.268;2022-09-30T03:00:50;7.70;99.90
59660;DHT22;45534;52.690;6.268;2022-09-30T03:03:25;7.70;99.90
59660;DHT22;45534;52.690;6.268;2022-09-30T03:05:52;7.70;99.90
59660;DHT22;45534;52.690;6.268;2022-09-30T03:08:18;7.70;99.90
59660;DHT22;45534;52.690;6.268;2022-09-30T03:10:46;7.70;99.90
59660;DHT22;45534;52.690;6.268;2022-09-30T03:26:51;7.50;99.90
59660;DHT22;45534;52.690;6.268;2022-09-30T03:35:09;7.60;99.90
59660;DHT22;45534;52.690;6.268;2022-09-30T03:40:27;7.60;99.90
59660;DHT22;45534;52.690;6.268;2022-09-30T03:43:18;7.60;99.90
59660;DHT22;45534;52.690;6.268;2022-09-30T03:46:00;7.50;99.90
59660;DHT22;45534;52.690;6.268;2022-09-30T03:48:30;7.50;99.90
59660;DHT22;45534;52.690;6.268;2022-09-30T03:50:58;7.50;99.90
59660;DHT22;45534;52.690;6.268;2022-09-30T03:53:24;7.40;99.90
59660;DHT22;45534;52.690;6.268;2022-09-30T03:55:52;7.40;99.90
59660;DHT22;45534;52.690;6.268;2022-09-30T03:58:20;7.30;99.90
59660;DHT22;45534;52.690;6.268;2022-09-30T04:00:51;7.30;99.90
59660;DHT22;45534;52.690;6.268;2022-09-30T04:03:18;7.20;99.90
59660;DHT22;45534;52.690;6.268;2022-09-30T04:05:45;7.20;99.90
59660;DHT22;45534;52.690;6.268;2022-09-30T04:08:11;7.20;99.90
59660;DHT22;45534;52.690;6.268;2022-09-30T04:10:39;7.10;99.90
59660;DHT22;45534;52.690;6.268;2022-09-30T04:13:06;7.20;99.90
59660;DHT22;45534;52.690;6.268;2022-09-30T04:15:33;7.10;99.90
59660;DHT22;45534;52.690;6.268;2022-09-30T04:17:59;7.10;99.90
59660;DHT22;45534;52.690;6.268;2022-09-30T04:20:25;7.10;99.90
59660;DHT22;45534;52.690;6.268;2022-09-30T04:22:51;7.00;99.90
59660;DHT22;45534;52.690;6.268;2022-09-30T04:25:16;7.00;99.90
59660;DHT22;45534;52.690;6.268;2022-09-30T04:27:42;7.00;99.90
59660;DHT22;45534;52.690;6.268;2022-09-30T04:30:08;7.00;99.90
59660;DHT22;45534;52.690;6.268;2022-09-30T04:32:34;7.00;99.90
59660;DHT22;45534;52.690;6.268;2022-09-30T04:34:59;7.00;99.90
59660;DHT22;45534;52.690;6.268;2022-09-30T04:37:25;6.90;99.90
59660;DHT22;45534;52.690;6.268;2022-09-30T04:39:51;6.90;99.90
59660;DHT22;45534;52.690;6.268;2022-09-30T04:42:16;6.90;99.90
59660;DHT22;45534;52.690;6.268;2022-09-30T04:44:43;6.90;99.90
59660;DHT22;45534;52.690;6.268;2022-09-30T04:47:08;6.80;99.90
59660;DHT22;45534;52.690;6.268;2022-09-30T04:49:34;6.70;99.90
59660;DHT22;45534;52.690;6.268;2022-09-30T04:52:00;6.70;99.90
59660;DHT22;45534;52.690;6.268;2022-09-30T04:54:26;6.60;99.90
59660;DHT22;45534;52.690;6.268;2022-09-30T04:56:51;6.60;99.90
59660;DHT22;45534;52.690;6.268;2022-09-30T04:59:17;6.50;99.90
59660;DHT22;45534;52.690;6.268;2022-09-30T05:01:43;6.50;99.90
59660;DHT22;45534;52.690;6.268;2022-09-30T05:04:09;6.50;99.90
59660;DHT22;45534;52.690;6.268;2022-09-30T05:06:37;6.50;99.90
59660;DHT22;45534;52.690;6.268;2022-09-30T05:09:05;6.50;99.90
59660;DHT22;45534;52.690;6.268;2022-09-30T05:11:31;6.50;99.90
59660;DHT22;45534;52.690;6.268;2022-09-30T05:13:57;6.40;99.90
59660;DHT22;45534;52.690;6.268;2022-09-30T05:16:23;6.40;99.90
59660;DHT22;45534;52.690;6.268;2022-09-30T05:18:48;6.40;99.90
59660;DHT22;45534;52.690;6.268;2022-09-30T05:21:16;6.40;99.90
59660;DHT22;45534;52.690;6.268;2022-09-30T05:23:43;6.30;99.90
59660;DHT22;45534;52.690;6.268;2022-09-30T05:26:08;6.30;99.90
59660;DHT22;45534;52.690;6.268;2022-09-30T05:28:34;6.30;99.90
59660;DHT22;45534;52.690;6.268;2022-09-30T05:31:03;6.40;99.90
59660;DHT22;45534;52.690;6.268;2022-09-30T05:33:31;6.30;99.90
59660;DHT22;45534;52.690;6.268;2022-09-30T05:36:05;6.30;99.90
59660;DHT22;45534;52.690;6.268;2022-09-30T05:38:31;6.30;99.90
59660;DHT22;45534;52.690;6.268;2022-09-30T05:40:57;6.30;99.90
59660;DHT22;45534;52.690;6.268;2022-09-30T05:43:23;6.40;99.90
59660;DHT22;45534;52.690;6.268;2022-09-30T05:45:56;6.40;99.90
59660;DHT22;45534;52.690;6.268;2022-09-30T05:48:23;6.30;99.90
59660;DHT22;45534;52.690;6.268;2022-09-30T05:50:54;6.40;99.90
59660;DHT22;45534;52.690;6.268;2022-09-30T05:53:20;6.40;99.90
59660;DHT22;45534;52.690;6.268;2022-09-30T05:55:47;6.40;99.90
59660;DHT22;45534;52.690;6.268;2022-09-30T05:58:19;6.40;99.90
59660;DHT22;45534;52.690;6.268;2022-09-30T06:00:46;6.50;99.90
59660;DHT22;45534;52.690;6.268;2022-09-30T06:03:13;6.50;99.90
59660;DHT22;45534;52.690;6.268;2022-09-30T06:05:39;6.50;99.90
59660;DHT22;45534;52.690;6.268;2022-09-30T06:08:05;6.50;99.90
59660;DHT22;45534;52.690;6.268;2022-09-30T06:10:34;6.50;99.90
59660;DHT22;45534;52.690;6.268;2022-09-30T06:13:02;6.50;99.90
59660;DHT22;45534;52.690;6.268;2022-09-30T06:15:28;6.40;99.90
59660;DHT22;45534;52.690;6.268;2022-09-30T06:17:54;6.50;99.90
59660;DHT22;45534;52.690;6.268;2022-09-30T06:20:20;6.50;99.90
59660;DHT22;45534;52.690;6.268;2022-09-30T06:22:46;6.60;99.90
59660;DHT22;45534;52.690;6.268;2022-09-30T06:25:12;6.70;99.90
59660;DHT22;45534;52.690;6.268;2022-09-30T06:27:40;6.70;99.90
59660;DHT22;45534;52.690;6.268;2022-09-30T06:30:08;6.70;99.90
59660;DHT22;45534;52.690;6.268;2022-09-30T06:32:34;6.70;99.90
59660;DHT22;45534;52.690;6.268;2022-09-30T06:35:00;6.80;99.90
59660;DHT22;45534;52.690;6.268;2022-09-30T06:37:27;6.80;99.90
59660;DHT22;45534;52.690;6.268;2022-09-30T06:39:53;6.80;99.90
59660;DHT22;45534;52.690;6.268;2022-09-30T06:42:19;6.90;99.90
59660;DHT22;45534;52.690;6.268;2022-09-30T06:44:47;6.90;99.90
59660;DHT22;45534;52.690;6.268;2022-09-30T06:47:13;7.00;99.90
59660;DHT22;45534;52.690;6.268;2022-09-30T06:49:39;7.10;99.90
59660;DHT22;45534;52.690;6.268;2022-09-30T06:52:08;7.10;99.90
59660;DHT22;45534;52.690;6.268;2022-09-30T06:54:34;7.20;99.90
59660;DHT22;45534;52.690;6.268;2022-09-30T06:56:59;7.20;99.90
59660;DHT22;45534;52.690;6.268;2022-09-30T06:59:26;7.30;99.90
59660;DHT22;45534;52.690;6.268;2022-09-30T07:01:52;7.40;99.90
59660;DHT22;45534;52.690;6.268;2022-09-30T07:04:18;7.40;99.90
59660;DHT22;45534;52.690;6.268;2022-09-30T07:06:44;7.50;99.90
59660;DHT22;45534;52.690;6.268;2022-09-30T07:09:10;7.50;99.90
59660;DHT22;45534;52.690;6.268;2022-09-30T07:11:37;7.50;99.90
59660;DHT22;45534;52.690;6.268;2022-09-30T07:14:04;7.60;99.90
59660;DHT22;45534;52.690;6.268;2022-09-30T07:16:30;7.60;99.90
59660;DHT22;45534;52.690;6.268;2022-09-30T07:18:56;7.70;99.90
59660;DHT22;45534;52.690;6.268;2022-09-30T07:21:26;7.70;99.90
59660;DHT22;45534;52.690;6.268;2022-09-30T07:23:52;7.80;99.90
59660;DHT22;45534;52.690;6.268;2022-09-30T07:26:22;7.80;99.90
59660;DHT22;45534;52.690;6.268;2022-09-30T07:28:49;7.90;99.90
59660;DHT22;45534;52.690;6.268;2022-09-30T07:31:18;7.90;99.90
59660;DHT22;45534;52.690;6.268;2022-09-30T07:33:46;8.00;99.90
59660;DHT22;45534;52.690;6.268;2022-09-30T07:36:13;8.00;99.90
59660;DHT22;45534;52.690;6.268;2022-09-30T07:38:44;8.10;99.90
59660;DHT22;45534;52.690;6.268;2022-09-30T07:41:19;8.10;99.90
59660;DHT22;45534;52.690;6.268;2022-09-30T07:43:47;8.20;99.90
59660;DHT22;45534;52.690;6.268;2022-09-30T07:46:15;8.30;99.90
59660;DHT22;45534;52.690;6.268;2022-09-30T07:48:43;8.40;99.90
59660;DHT22;45534;52.690;6.268;2022-09-30T07:51:20;8.50;99.90
59660;DHT22;45534;52.690;6.268;2022-09-30T07:53:49;8.60;99.90
59660;DHT22;45534;52.690;6.268;2022-09-30T07:56:16;8.70;99.90
59660;DHT22;45534;52.690;6.268;2022-09-30T07:58:42;8.80;99.90
59660;DHT22;45534;52.690;6.268;2022-09-30T08:01:08;8.90;99.90
59660;DHT22;45534;52.690;6.268;2022-09-30T08:03:36;9.00;99.90
59660;DHT22;45534;52.690;6.268;2022-09-30T08:06:15;9.10;99.90
59660;DHT22;45534;52.690;6.268;2022-09-30T08:08:42;9.20;99.90
59660;DHT22;45534;52.690;6.268;2022-09-30T08:11:09;9.30;99.90
59660;DHT22;45534;52.690;6.268;2022-09-30T08:13:36;9.30;99.90
59660;DHT22;45534;52.690;6.268;2022-09-30T08:16:02;9.40;99.90
59660;DHT22;45534;52.690;6.268;2022-09-30T08:18:28;9.50;99.90
59660;DHT22;45534;52.690;6.268;2022-09-30T08:20:54;9.50;99.90
59660;DHT22;45534;52.690;6.268;2022-09-30T08:23:20;9.60;99.90
59660;DHT22;45534;52.690;6.268;2022-09-30T08:25:46;9.60;99.90
59660;DHT22;45534;52.690;6.268;2022-09-30T08:28:12;9.70;99.90
59660;DHT22;45534;52.690;6.268;2022-09-30T08:30:38;9.80;99.90
59660;DHT22;45534;52.690;6.268;2022-09-30T08:33:04;10.00;99.90
59660;DHT22;45534;52.690;6.268;2022-09-30T08:35:30;10.10;99.90
59660;DHT22;45534;52.690;6.268;2022-09-30T08:37:56;10.20;99.90
59660;DHT22;45534;52.690;6.268;2022-09-30T08:40:31;10.40;99.90
59660;DHT22;45534;52.690;6.268;2022-09-30T08:53:28;11.00;99.90
59660;DHT22;45534;52.690;6.268;2022-09-30T08:55:56;11.10;99.90
59660;DHT22;45534;52.690;6.268;2022-09-30T08:58:34;11.10;99.90
59660;DHT22;45534;52.690;6.268;2022-09-30T09:03:38;11.40;99.90
59660;DHT22;45534;52.690;6.268;2022-09-30T09:06:22;11.40;99.90
59660;DHT22;45534;52.690;6.268;2022-09-30T09:11:41;11.60;99.90
59660;DHT22;45534;52.690;6.268;2022-09-30T09:20:55;11.90;99.90
59660;DHT22;45534;52.690;6.268;2022-09-30T09:23:23;12.00;99.90
59660;DHT22;45534;52.690;6.268;2022-09-30T09:25:49;12.10;99.90
59660;DHT22;45534;52.690;6.268;2022-09-30T09:28:28;12.20;99.90
59660;DHT22;45534;52.690;6.268;2022-09-30T09:30:58;12.30;99.90
59660;DHT22;45534;52.690;6.268;2022-09-30T09:33:28;12.40;99.90
59660;DHT22;45534;52.690;6.268;2022-09-30T09:36:23;12.50;99.90
59660;DHT22;45534;52.690;6.268;2022-09-30T09:44:32;12.80;99.90
59660;DHT22;45534;52.690;6.268;2022-09-30T09:47:04;12.90;99.90
59660;DHT22;45534;52.690;6.268;2022-09-30T09:49:43;13.00;99.90
59660;DHT22;45534;52.690;6.268;2022-09-30T09:54:53;13.30;99.90
59660;DHT22;45534;52.690;6.268;2022-09-30T09:57:24;13.50;99.90
59660;DHT22;45534;52.690;6.268;2022-09-30T09:59:59;13.70;99.90
59660;DHT22;45534;52.690;6.268;2022-09-30T10:05:30;14.10;99.90
59660;DHT22;45534;52.690;6.268;2022-09-30T10:11:16;14.40;99.90
59660;DHT22;45534;52.690;6.268;2022-09-30T10:16:03;14.60;99.90
59660;DHT22;45534;52.690;6.268;2022-09-30T10:18:35;14.70;99.90
59660;DHT22;45534;52.690;6.268;2022-09-30T10:21:17;14.80;99.90
59660;DHT22;45534;52.690;6.268;2022-09-30T10:23:43;14.90;99.90
59660;DHT22;45534;52.690;6.268;2022-09-30T10:26:24;15.00;99.90
59660;DHT22;45534;52.690;6.268;2022-09-30T10:28:57;14.90;99.90
59660;DHT22;45534;52.690;6.268;2022-09-30T10:33:58;15.00;99.90
59660;DHT22;45534;52.690;6.268;2022-09-30T10:36:31;15.10;99.90
59660;DHT22;45534;52.690;6.268;2022-09-30T10:39:00;15.30;99.90
59660;DHT22;45534;52.690;6.268;2022-09-30T10:41:30;15.40;99.90
59660;DHT22;45534;52.690;6.268;2022-09-30T10:44:11;15.60;99.90
59660;DHT22;45534;52.690;6.268;2022-09-30T10:46:40;15.80;99.90
59660;DHT22;45534;52.690;6.268;2022-09-30T10:49:36;16.00;99.90
59660;DHT22;45534;52.690;6.268;2022-09-30T10:52:05;16.10;99.90
59660;DHT22;45534;52.690;6.268;2022-09-30T10:57:12;16.50;99.90
59660;DHT22;45534;52.690;6.268;2022-09-30T10:59:39;16.70;99.90
59660;DHT22;45534;52.690;6.268;2022-09-30T11:05:23;17.10;99.90
59660;DHT22;45534;52.690;6.268;2022-09-30T11:10:59;17.70;99.90
59660;DHT22;45534;52.690;6.268;2022-09-30T11:18:58;17.70;99.90
59660;DHT22;45534;52.690;6.268;2022-09-30T11:21:43;17.80;99.90
59660;DHT22;45534;52.690;6.268;2022-09-30T11:40:55;18.70;99.90
59660;DHT22;45534;52.690;6.268;2022-09-30T11:52:03;17.60;99.90
59660;DHT22;45534;52.690;6.268;2022-09-30T11:57:13;17.10;99.90
59660;DHT22;45534;52.690;6.268;2022-09-30T11:59:47;17.40;99.90
59660;DHT22;45534;52.690;6.268;2022-09-30T12:05:01;18.20;99.90
59660;DHT22;45534;52.690;6.268;2022-09-30T12:07:54;18.40;99.90
59660;DHT22;45534;52.690;6.268;2022-09-30T12:10:33;18.30;99.90
59660;DHT22;45534;52.690;6.268;2022-09-30T12:13:28;18.10;99.70
59660;DHT22;45534;52.690;6.268;2022-09-30T12:15:56;18.00;99.90
59660;DHT22;45534;52.690;6.268;2022-09-30T12:19:12;18.00;99.90
59660;DHT22;45534;52.690;6.268;2022-09-30T12:21:25;18.20;99.90
59660;DHT22;45534;52.690;6.268;2022-09-30T12:24:16;18.10;98.70
59660;DHT22;45534;52.690;6.268;2022-09-30T12:26:44;17.90;99.10
59660;DHT22;45534;52.690;6.268;2022-09-30T12:32:39;17.70;99.70
59660;DHT22;45534;52.690;6.268;2022-09-30T12:49:22;19.40;97.20
59660;DHT22;45534;52.690;6.268;2022-09-30T12:51:53;19.60;94.70
59660;DHT22;45534;52.690;6.268;2022-09-30T12:54:27;19.30;96.30
59660;DHT22;45534;52.690;6.268;2022-09-30T12:56:59;19.30;96.20
59660;DHT22;45534;52.690;6.268;2022-09-30T12:59:32;19.20;96.20
59660;DHT22;45534;52.690;6.268;2022-09-30T13:01:59;18.90;95.50
59660;DHT22;45534;52.690;6.268;2022-09-30T13:04:38;18.50;97.10
59660;DHT22;45534;52.690;6.268;2022-09-30T13:09:54;18.30;97.30
59660;DHT22;45534;52.690;6.268;2022-09-30T13:12:28;18.80;96.60
59660;DHT22;45534;52.690;6.268;2022-09-30T13:17:48;19.20;93.70
59660;DHT22;45534;52.690;6.268;2022-09-30T13:20:52;19.20;94.90
59660;DHT22;45534;52.690;6.268;2022-09-30T13:31:26;18.40;94.90
59660;DHT22;45534;52.690;6.268;2022-09-30T13:34:09;18.50;94.60
59660;DHT22;45534;52.690;6.268;2022-09-30T13:42:27;17.90;95.70
59660;DHT22;45534;52.690;6.268;2022-09-30T13:56:00;19.60;91.00
59660;DHT22;45534;52.690;6.268;2022-09-30T14:21:47;19.80;90.60
59660;DHT22;45534;52.690;6.268;2022-09-30T14:24:21;19.80;86.50
59660;DHT22;45534;52.690;6.268;2022-09-30T14:32:28;19.80;87.70
59660;DHT22;45534;52.690;6.268;2022-09-30T14:34:56;19.60;87.80
59660;DHT22;45534;52.690;6.268;2022-09-30T14:37:28;19.50;89.60
59660;DHT22;45534;52.690;6.268;2022-09-30T14:39:55;19.30;90.10
59660;DHT22;45534;52.690;6.268;2022-09-30T14:42:32;19.30;90.70
59660;DHT22;45534;52.690;6.268;2022-09-30T14:45:02;19.50;90.60
59660;DHT22;45534;52.690;6.268;2022-09-30T14:47:43;19.80;90.60
59660;DHT22;45534;52.690;6.268;2022-09-30T14:50:14;20.10;87.40
59660;DHT22;45534;52.690;6.268;2022-09-30T14:52:42;20.40;86.20
59660;DHT22;45534;52.690;6.268;2022-09-30T14:57:46;20.60;86.10
59660;DHT22;45534;52.690;6.268;2022-09-30T15:00:29;20.20;85.80
59660;DHT22;45534;52.690;6.268;2022-09-30T15:02:56;19.90;89.90
59660;DHT22;45534;52.690;6.268;2022-09-30T15:05:29;19.90;91.20
59660;DHT22;45534;52.690;6.268;2022-09-30T15:07:55;19.70;90.20
59660;DHT22;45534;52.690;6.268;2022-09-30T15:10:23;19.40;91.40
59660;DHT22;45534;52.690;6.268;2022-09-30T15:12:49;18.90;93.20
59660;DHT22;45534;52.690;6.268;2022-09-30T15:15:34;18.40;96.20
59660;DHT22;45534;52.690;6.268;2022-09-30T15:18:20;18.00;97.00
59660;DHT22;45534;52.690;6.268;2022-09-30T15:20:47;17.70;98.00
59660;DHT22;45534;52.690;6.268;2022-09-30T15:23:19;17.30;98.60
59660;DHT22;45534;52.690;6.268;2022-09-30T15:25:46;17.00;99.30
59660;DHT22;45534;52.690;6.268;2022-09-30T15:28:12;16.80;99.90
59660;DHT22;45534;52.690;6.268;2022-09-30T15:30:37;16.70;99.90
59660;DHT22;45534;52.690;6.268;2022-09-30T15:33:04;16.70;99.90
59660;DHT22;45534;52.690;6.268;2022-09-30T15:35:31;16.70;99.90
59660;DHT22;45534;52.690;6.268;2022-09-30T15:38:20;16.70;99.90
59660;DHT22;45534;52.690;6.268;2022-09-30T15:40:52;16.60;99.90
59660;DHT22;45534;52.690;6.268;2022-09-30T15:43:41;16.50;99.90
59660;DHT22;45534;52.690;6.268;2022-09-30T15:46:15;16.40;99.90
59660;DHT22;45534;52.690;6.268;2022-09-30T15:48:42;16.40;99.90
59660;DHT22;45534;52.690;6.268;2022-09-30T15:51:33;16.40;99.90
59660;DHT22;45534;52.690;6.268;2022-09-30T15:54:46;16.40;99.90
59660;DHT22;45534;52.690;6.268;2022-09-30T15:56:47;16.40;99.90
59660;DHT22;45534;52.690;6.268;2022-09-30T15:59:13;16.40;99.90
59660;DHT22;45534;52.690;6.268;2022-09-30T16:01:41;16.50;99.90
59660;DHT22;45534;52.690;6.268;2022-09-30T16:06:56;16.40;99.90
59660;DHT22;45534;52.690;6.268;2022-09-30T16:09:28;16.40;99.90
59660;DHT22;45534;52.690;6.268;2022-09-30T16:12:02;16.40;99.90
59660;DHT22;45534;52.690;6.268;2022-09-30T16:17:05;16.20;99.90
59660;DHT22;45534;52.690;6.268;2022-09-30T16:19:32;16.30;99.90
59660;DHT22;45534;52.690;6.268;2022-09-30T16:21:59;16.20;99.90
59660;DHT22;45534;52.690;6.268;2022-09-30T16:27:19;16.10;99.90
59660;DHT22;45534;52.690;6.268;2022-09-30T16:29:45;16.00;99.90
59660;DHT22;45534;52.690;6.268;2022-09-30T16:32:11;16.00;99.90
59660;DHT22;45534;52.690;6.268;2022-09-30T16:34:39;15.90;99.90
59660;DHT22;45534;52.690;6.268;2022-09-30T16:37:17;15.80;99.90
59660;DHT22;45534;52.690;6.268;2022-09-30T16:39:43;15.70;99.90
59660;DHT22;45534;52.690;6.268;2022-09-30T16:42:12;15.60;99.90
59660;DHT22;45534;52.690;6.268;2022-09-30T16:44:38;15.50;99.90
59660;DHT22;45534;52.690;6.268;2022-09-30T16:47:04;15.50;99.90
59660;DHT22;45534;52.690;6.268;2022-09-30T16:49:30;15.40;99.90
59660;DHT22;45534;52.690;6.268;2022-09-30T16:51:55;15.30;99.90
59660;DHT22;45534;52.690;6.268;2022-09-30T16:54:21;15.20;99.90
59660;DHT22;45534;52.690;6.268;2022-09-30T16:56:47;15.10;99.90
59660;DHT22;45534;52.690;6.268;2022-09-30T16:59:15;15.00;99.90
59660;DHT22;45534;52.690;6.268;2022-09-30T17:01:42;15.00;99.90
59660;DHT22;45534;52.690;6.268;2022-09-30T17:04:08;14.90;99.90
59660;DHT22;45534;52.690;6.268;2022-09-30T17:06:35;14.80;99.90
59660;DHT22;45534;52.690;6.268;2022-09-30T17:09:05;14.80;99.90
59660;DHT22;45534;52.690;6.268;2022-09-30T17:11:33;14.70;99.90
59660;DHT22;45534;52.690;6.268;2022-09-30T17:13:59;14.60;99.90
59660;DHT22;45534;52.690;6.268;2022-09-30T17:16:26;14.60;99.90
59660;DHT22;45534;52.690;6.268;2022-09-30T17:18:52;14.50;99.90
59660;DHT22;45534;52.690;6.268;2022-09-30T17:21:23;14.50;99.90
59660;DHT22;45534;52.690;6.268;2022-09-30T17:23:49;14.40;99.90
59660;DHT22;45534;52.690;6.268;2022-09-30T17:26:15;14.40;99.90
59660;DHT22;45534;52.690;6.268;2022-09-30T17:28:41;14.40;99.90
59660;DHT22;45534;52.690;6.268;2022-09-30T17:31:08;14.30;99.90
59660;DHT22;45534;52.690;6.268;2022-09-30T17:33:37;14.20;99.90
59660;DHT22;45534;52.690;6.268;2022-09-30T17:36:08;14.10;99.90
59660;DHT22;45534;52.690;6.268;2022-09-30T17:38:35;14.10;99.90
59660;DHT22;45534;52.690;6.268;2022-09-30T17:41:02;14.00;99.90
59660;DHT22;45534;52.690;6.268;2022-09-30T17:43:46;14.00;99.90
59660;DHT22;45534;52.690;6.268;2022-09-30T17:46:13;13.90;99.90
59660;DHT22;45534;52.690;6.268;2022-09-30T17:48:43;13.80;99.90
59660;DHT22;45534;52.690;6.268;2022-09-30T17:51:10;13.70;99.90
59660;DHT22;45534;52.690;6.268;2022-09-30T17:53:35;13.70;99.90
59660;DHT22;45534;52.690;6.268;2022-09-30T17:56:12;13.60;99.90
59660;DHT22;45534;52.690;6.268;2022-09-30T17:58:38;13.60;99.90
59660;DHT22;45534;52.690;6.268;2022-09-30T18:01:08;13.60;99.90
59660;DHT22;45534;52.690;6.268;2022-09-30T18:03:35;13.60;99.90
59660;DHT22;45534;52.690;6.268;2022-09-30T18:06:02;13.60;99.90
59660;DHT22;45534;52.690;6.268;2022-09-30T18:08:28;13.50;99.90
59660;DHT22;45534;52.690;6.268;2022-09-30T18:10:54;13.50;99.90
59660;DHT22;45534;52.690;6.268;2022-09-30T18:13:22;13.50;99.90
59660;DHT22;45534;52.690;6.268;2022-09-30T18:15:48;13.50;99.90
59660;DHT22;45534;52.690;6.268;2022-09-30T18:18:14;13.40;99.90
59660;DHT22;45534;52.690;6.268;2022-09-30T18:20:45;13.40;99.90
59660;DHT22;45534;52.690;6.268;2022-09-30T18:23:12;13.40;99.90
59660;DHT22;45534;52.690;6.268;2022-09-30T18:25:38;13.30;99.90
59660;DHT22;45534;52.690;6.268;2022-09-30T18:28:07;13.30;99.90
59660;DHT22;45534;52.690;6.268;2022-09-30T18:30:38;13.30;99.90
59660;DHT22;45534;52.690;6.268;2022-09-30T18:33:04;13.20;99.90
59660;DHT22;45534;52.690;6.268;2022-09-30T18:35:36;13.10;99.90
59660;DHT22;45534;52.690;6.268;2022-09-30T18:38:02;13.00;99.90
59660;DHT22;45534;52.690;6.268;2022-09-30T18:40:29;13.00;99.90
59660;DHT22;45534;52.690;6.268;2022-09-30T18:43:00;13.00;99.90
59660;DHT22;45534;52.690;6.268;2022-09-30T18:45:31;12.90;99.90
59660;DHT22;45534;52.690;6.268;2022-09-30T18:47:59;12.90;99.90
59660;DHT22;45534;52.690;6.268;2022-09-30T18:50:26;12.90;99.90
59660;DHT22;45534;52.690;6.268;2022-09-30T18:52:53;12.80;99.90
59660;DHT22;45534;52.690;6.268;2022-09-30T18:55:19;12.80;99.90
59660;DHT22;45534;52.690;6.268;2022-09-30T18:57:45;12.70;99.90
59660;DHT22;45534;52.690;6.268;2022-09-30T19:00:16;12.70;99.90
59660;DHT22;45534;52.690;6.268;2022-09-30T19:02:42;12.80;99.90
59660;DHT22;45534;52.690;6.268;2022-09-30T19:05:11;12.80;99.90
59660;DHT22;45534;52.690;6.268;2022-09-30T19:07:37;12.80;99.90
59660;DHT22;45534;52.690;6.268;2022-09-30T19:10:06;12.80;99.90
59660;DHT22;45534;52.690;6.268;2022-09-30T19:12:34;12.80;99.90
59660;DHT22;45534;52.690;6.268;2022-09-30T19:15:08;12.80;99.90
59660;DHT22;45534;52.690;6.268;2022-09-30T19:17:35;12.80;99.90
59660;DHT22;45534;52.690;6.268;2022-09-30T19:20:03;12.80;99.90
59660;DHT22;45534;52.690;6.268;2022-09-30T19:22:29;12.80;99.90
59660;DHT22;45534;52.690;6.268;2022-09-30T19:24:55;12.80;99.90
59660;DHT22;45534;52.690;6.268;2022-09-30T19:27:21;12.80;99.90
59660;DHT22;45534;52.690;6.268;2022-09-30T19:29:50;12.80;99.90
59660;DHT22;45534;52.690;6.268;2022-09-30T19:32:17;12.80;99.90
59660;DHT22;45534;52.690;6.268;2022-09-30T19:34:44;12.90;99.90
59660;DHT22;45534;52.690;6.268;2022-09-30T19:37:11;12.90;99.90
59660;DHT22;45534;52.690;6.268;2022-09-30T19:39:37;12.90;99.90
59660;DHT22;45534;52.690;6.268;2022-09-30T19:42:03;12.90;99.90
59660;DHT22;45534;52.690;6.268;2022-09-30T19:44:29;12.90;99.90